createdAt,value
2019-04-10T00:02:19.985Z,72.68
2019-04-10T00:04:50.119Z,74.04
2019-04-10T00:07:19.809Z,74.80
2019-04-10T00:09:49.559Z,73.22
2019-04-10T00:12:18.057Z,71.62
2019-04-10T00:14:46.589Z,72.87
2019-04-10T00:17:15.069Z,73.83
2019-04-10T00:19:43.754Z,72.40
2019-04-10T00:22:12.285Z,71.48
2019-04-10T00:24:41.033Z,71.75
2019-04-10T00:27:10.372Z,72.51
2019-04-10T00:29:40.400Z,71.78
2019-04-10T00:32:11.902Z,71.38
2019-04-10T00:34:40.395Z,71.24
2019-04-10T00:37:20.487Z,71.46
2019-04-10T00:39:39.280Z,71.42
2019-04-10T00:42:08.470Z,71.87
2019-04-10T00:44:37.520Z,71.59
2019-04-10T00:47:06.588Z,71.58
2019-04-10T00:49:35.080Z,71.90
2019-04-10T00:52:03.892Z,70.58
2019-04-10T00:54:33.063Z,71.39
2019-04-10T00:57:01.632Z,71.29
2019-04-10T00:59:30.364Z,70.10
2019-04-10T01:01:58.814Z,70.11
2019-04-10T01:04:27.291Z,70.53
2019-04-10T01:06:56.683Z,70.19
2019-04-10T01:09:25.606Z,70.48
2019-04-10T01:11:55.029Z,70.23
2019-04-10T01:14:23.724Z,70.15
2019-04-10T01:16:52.214Z,69.74
2019-04-10T01:19:20.778Z,69.94
2019-04-10T01:21:49.356Z,70.19
2019-04-10T01:24:17.759Z,70.06
2019-04-10T01:26:46.223Z,70.24
2019-04-10T01:29:15.479Z,70.50
2019-04-10T01:31:44.036Z,71.39
2019-04-10T01:34:13.525Z,70.03
2019-04-10T01:36:42.092Z,70.46
2019-04-10T01:39:12.209Z,70.27
2019-04-10T01:41:41.692Z,69.99
2019-04-10T01:44:11.101Z,69.97
2019-04-10T01:46:40.272Z,70.21
2019-04-10T01:49:09.252Z,69.83
2019-04-10T01:51:37.762Z,69.70
2019-04-10T01:54:06.892Z,69.88
2019-04-10T01:56:36.771Z,69.80
2019-04-10T01:59:05.747Z,70.38
2019-04-10T02:01:38.796Z,70.22
2019-04-10T02:04:07.322Z,69.68
2019-04-10T02:06:35.836Z,69.68
2019-04-10T02:09:07.402Z,70.07
2019-04-10T02:11:35.883Z,70.21
2019-04-10T02:14:04.308Z,70.14
2019-04-10T02:16:32.858Z,69.44
2019-04-10T02:19:01.658Z,69.86
2019-04-10T02:21:30.213Z,70.08
2019-04-10T02:23:58.727Z,70.19
2019-04-10T02:26:27.660Z,69.17
2019-04-10T02:28:56.078Z,69.74
2019-04-10T02:31:26.340Z,69.94
2019-04-10T02:33:56.952Z,69.67
2019-04-10T02:36:25.662Z,69.80
2019-04-10T02:39:10.012Z,69.31
2019-04-10T02:41:25.556Z,69.46
2019-04-10T02:43:55.468Z,69.55
2019-04-10T02:46:25.080Z,70.20
2019-04-10T02:48:54.337Z,69.70
2019-04-10T02:51:24.721Z,69.45
2019-04-10T02:53:55.512Z,69.32
2019-04-10T02:56:25.251Z,69.61
2019-04-10T02:58:54.343Z,68.64
2019-04-10T03:01:23.509Z,68.49
2019-04-10T03:03:54.779Z,68.61
2019-04-10T03:06:22.914Z,69.14
2019-04-10T03:09:07.949Z,68.67
2019-04-10T03:11:22.250Z,68.43
2019-04-10T03:13:53.285Z,70.35
2019-04-10T03:16:22.078Z,68.93
2019-04-10T03:18:50.527Z,68.34
2019-04-10T03:21:18.931Z,69.98
2019-04-10T03:23:47.608Z,68.71
2019-04-10T03:26:16.001Z,68.84
2019-04-10T03:28:44.580Z,68.46
2019-04-10T03:31:14.804Z,68.30
2019-04-10T03:33:47.518Z,68.45
2019-04-10T03:36:15.661Z,68.60
2019-04-10T03:38:55.264Z,68.24
2019-04-10T03:41:14.328Z,68.84
2019-04-10T03:43:43.755Z,68.86
2019-04-10T03:46:13.013Z,68.48
2019-04-10T03:48:41.517Z,68.24
2019-04-10T03:51:09.952Z,68.76
2019-04-10T03:53:38.352Z,68.56
2019-04-10T03:56:07.541Z,69.12
2019-04-10T03:58:35.988Z,68.86
2019-04-10T04:01:04.809Z,69.37
2019-04-10T04:03:33.302Z,70.94
2019-04-10T04:06:01.715Z,69.62
2019-04-10T04:08:30.230Z,69.36
2019-04-10T04:10:59.446Z,68.37
2019-04-10T04:13:28.030Z,68.13
2019-04-10T04:15:56.446Z,68.00
2019-04-10T04:18:24.967Z,68.29
2019-04-10T04:20:53.444Z,68.26
2019-04-10T04:23:21.948Z,67.87
2019-04-10T04:25:50.480Z,67.60
2019-04-10T04:28:18.951Z,68.08
2019-04-10T04:30:47.502Z,67.70
2019-04-10T04:33:15.947Z,67.94
2019-04-10T04:35:44.349Z,68.24
2019-04-10T04:38:13.449Z,67.45
2019-04-10T04:40:42.089Z,67.13
2019-04-10T04:43:10.542Z,67.54
2019-04-10T04:45:39.006Z,67.48
2019-04-10T04:48:07.762Z,67.47
2019-04-10T04:50:36.248Z,66.68
2019-04-10T04:53:04.692Z,66.60
2019-04-10T04:55:33.209Z,66.98
2019-04-10T04:58:01.948Z,66.61
2019-04-10T05:00:30.594Z,67.91
2019-04-10T05:02:59.793Z,67.00
2019-04-10T05:05:29.291Z,66.16
2019-04-10T05:08:02.224Z,65.72
2019-04-10T05:10:28.031Z,65.70
2019-04-10T05:12:57.767Z,66.61
2019-04-10T05:15:26.965Z,66.78
2019-04-10T05:17:55.643Z,66.06
2019-04-10T05:20:24.166Z,66.61
2019-04-10T05:22:54.547Z,65.52
2019-04-10T05:25:22.752Z,66.41
2019-04-10T05:27:51.200Z,65.56
2019-04-10T05:30:20.668Z,66.35
2019-04-10T05:32:49.370Z,65.32
2019-04-10T05:35:17.973Z,65.02
2019-04-10T05:37:46.430Z,64.43
2019-04-10T05:40:15.261Z,65.04
2019-04-10T05:42:44.938Z,65.38
2019-04-10T05:45:14.832Z,65.23
2019-04-10T05:47:44.437Z,64.91
2019-04-10T05:50:13.082Z,64.28
2019-04-10T05:52:41.473Z,65.04
2019-04-10T05:55:10.111Z,64.69
2019-04-10T05:57:38.532Z,63.98
2019-04-10T06:00:10.675Z,64.50
2019-04-10T06:02:39.806Z,64.51
2019-04-10T06:05:08.388Z,65.38
2019-04-10T06:07:37.145Z,65.57
2019-04-10T06:10:10.330Z,64.73
2019-04-10T06:12:38.378Z,64.84
2019-04-10T06:15:07.947Z,63.97
2019-04-10T06:17:36.377Z,64.70
2019-04-10T06:20:07.189Z,66.44
2019-04-10T06:22:37.303Z,67.30
2019-04-10T06:25:08.639Z,65.69
2019-04-10T06:27:36.768Z,67.56
2019-04-10T06:30:07.864Z,67.48
2019-04-10T06:32:37.580Z,67.45
2019-04-10T06:35:07.917Z,67.01
2019-04-10T06:37:36.515Z,67.08
2019-04-10T06:40:14.270Z,67.31
2019-04-10T06:42:46.450Z,67.54
2019-04-10T06:45:07.604Z,68.22
2019-04-10T06:47:36.276Z,67.19
2019-04-10T06:50:06.643Z,68.60
2019-04-10T06:52:35.334Z,68.67
2019-04-10T06:55:05.073Z,68.16
2019-04-10T06:57:45.128Z,67.35
2019-04-10T07:00:13.670Z,67.62
2019-04-10T07:02:40.027Z,67.45
2019-04-10T07:05:10.496Z,68.38
2019-04-10T07:07:49.516Z,68.67
2019-04-10T07:10:20.631Z,68.46
2019-04-10T07:12:39.850Z,67.89
2019-04-10T07:15:10.663Z,68.09
2019-04-10T07:17:41.162Z,67.60
2019-04-10T07:20:09.768Z,67.96
2019-04-10T07:22:43.274Z,67.65
2019-04-10T07:25:10.318Z,66.74
2019-04-10T07:27:40.494Z,67.49
2019-04-10T07:30:09.919Z,67.13
2019-04-10T07:32:41.218Z,67.77
2019-04-10T07:35:08.976Z,68.72
2019-04-10T07:37:37.660Z,68.16
2019-04-10T07:40:08.052Z,67.25
2019-04-10T07:42:39.722Z,67.63
2019-04-10T07:45:08.610Z,67.48
2019-04-10T07:47:38.004Z,67.11
2019-04-10T07:50:08.695Z,67.10
2019-04-10T07:52:37.439Z,66.45
2019-04-10T07:55:06.698Z,65.78
2019-04-10T07:57:36.332Z,65.69
2019-04-10T08:00:09.191Z,65.65
2019-04-10T08:02:38.504Z,65.34
2019-04-10T08:05:08.190Z,65.51
2019-04-10T08:07:38.835Z,66.40
2019-04-10T08:10:07.969Z,66.02
2019-04-10T08:12:43.281Z,64.54
2019-04-10T08:15:07.360Z,64.72
2019-04-10T08:17:36.838Z,64.70
2019-04-10T08:20:06.191Z,64.87
2019-04-10T08:22:34.990Z,64.35
2019-04-10T08:25:04.549Z,63.91
2019-04-10T08:27:34.040Z,64.36
2019-04-10T08:30:03.333Z,64.16
2019-04-10T08:32:32.234Z,62.76
2019-04-10T08:35:02.102Z,63.40
2019-04-10T08:37:30.653Z,63.09
2019-04-10T08:39:59.290Z,62.71
2019-04-10T08:42:27.740Z,62.15
2019-04-10T08:44:56.437Z,61.51
2019-04-10T08:47:25.017Z,62.67
2019-04-10T08:49:53.563Z,61.33
2019-04-10T08:52:22.113Z,62.38
2019-04-10T08:54:51.216Z,61.74
2019-04-10T08:57:19.731Z,61.18
2019-04-10T08:59:48.364Z,60.97
2019-04-10T09:02:18.036Z,60.27
2019-04-10T09:04:46.870Z,60.93
2019-04-10T09:07:15.885Z,58.49
2019-04-10T09:09:44.402Z,59.01
2019-04-10T09:12:13.588Z,58.56
2019-04-10T09:14:43.349Z,58.82
2019-04-10T09:17:11.887Z,58.10
2019-04-10T09:19:40.329Z,57.92
2019-04-10T09:22:09.990Z,58.94
2019-04-10T09:24:38.612Z,58.91
2019-04-10T09:27:07.198Z,55.14
2019-04-10T09:29:36.236Z,57.41
2019-04-10T09:32:04.647Z,57.03
2019-04-10T09:34:34.043Z,56.01
2019-04-10T09:37:02.527Z,55.84
2019-04-10T09:39:31.742Z,56.85
2019-04-10T09:42:01.228Z,57.27
2019-04-10T09:44:29.906Z,57.53
2019-04-10T09:46:58.323Z,58.22
2019-04-10T09:49:37.639Z,58.13
2019-04-10T09:51:58.627Z,56.74
2019-04-10T09:54:28.149Z,57.28
2019-04-10T09:56:57.086Z,56.36
2019-04-10T09:59:32.985Z,57.47
2019-04-10T10:01:56.361Z,58.86
2019-04-10T10:04:25.714Z,59.48
2019-04-10T10:06:54.283Z,58.13
2019-04-10T10:09:23.787Z,57.55
2019-04-10T10:11:53.431Z,58.11
2019-04-10T10:14:22.990Z,57.62
2019-04-10T10:16:52.617Z,58.19
2019-04-10T10:19:21.822Z,57.11
2019-04-10T10:21:50.549Z,58.06
2019-04-10T10:24:19.012Z,57.87
2019-04-10T10:26:47.458Z,58.50
2019-04-10T10:29:15.862Z,58.47
2019-04-10T10:31:44.516Z,59.19
2019-04-10T10:34:13.062Z,58.52
2019-04-10T10:36:45.906Z,58.97
2019-04-10T10:39:20.979Z,58.86
2019-04-10T10:41:50.938Z,59.28
2019-04-10T10:44:19.688Z,58.74
2019-04-10T16:20:06.977Z,46.23
2019-04-10T16:22:37.449Z,46.03
2019-04-10T16:25:11.564Z,44.63
2019-04-10T16:27:41.140Z,42.61
2019-04-10T16:30:15.562Z,47.88
2019-04-10T16:32:44.470Z,42.75
2019-04-10T16:35:13.912Z,42.44
2019-04-10T16:37:42.503Z,44.44
2019-04-10T16:40:11.802Z,43.42
2019-04-10T16:42:41.720Z,43.10
2019-04-10T16:45:10.943Z,41.99
2019-04-10T16:47:39.385Z,41.98
2019-04-10T16:50:09.165Z,45.84
2019-04-10T16:52:37.595Z,42.94
2019-04-10T16:55:08.383Z,42.63
2019-04-10T16:57:36.958Z,41.47
2019-04-10T17:00:09.013Z,45.22
2019-04-10T17:02:37.524Z,45.39
2019-04-10T17:05:08.187Z,46.54
2019-04-10T17:07:37.322Z,46.71
2019-04-10T17:10:16.047Z,48.15
2019-04-10T17:12:38.563Z,44.17
2019-04-10T17:15:10.260Z,45.58
2019-04-10T17:17:39.037Z,47.00
2019-04-10T17:20:08.656Z,48.03
2019-04-10T17:22:43.508Z,49.51
2019-04-10T17:25:07.731Z,49.35
2019-04-10T17:27:37.455Z,45.10
2019-04-10T17:30:07.769Z,44.95
2019-04-10T17:32:43.209Z,44.54
2019-04-10T17:35:13.769Z,45.09
2019-04-10T17:37:42.298Z,44.77
2019-04-10T17:40:25.131Z,44.10
2019-04-10T17:42:44.396Z,42.39
2019-04-10T17:45:14.213Z,47.73
2019-04-10T17:47:42.990Z,44.89
2019-04-10T17:50:14.160Z,49.62
2019-04-10T17:52:42.987Z,44.92
2019-04-10T17:55:11.751Z,44.80
2019-04-10T17:57:44.164Z,46.27
2019-04-10T18:00:21.139Z,46.12
2019-04-10T18:02:50.823Z,44.06
2019-04-10T18:05:20.361Z,43.94
2019-04-10T18:07:48.849Z,43.22
2019-04-10T18:10:17.562Z,43.90
2019-04-10T18:12:46.125Z,45.79
2019-04-10T18:15:15.734Z,41.21
2019-04-10T18:17:44.288Z,43.11
2019-04-10T18:20:12.779Z,42.95
2019-04-10T18:22:42.751Z,42.74
2019-04-10T18:25:14.186Z,42.23
2019-04-10T18:27:42.910Z,42.75
2019-04-10T18:30:12.100Z,41.59
2019-04-10T18:32:40.497Z,43.21
2019-04-10T18:35:09.046Z,41.74
2019-04-10T18:37:37.494Z,42.30
2019-04-10T18:40:07.499Z,41.83
2019-04-10T18:42:37.302Z,41.71
2019-04-10T18:45:09.167Z,42.32
2019-04-10T18:47:39.281Z,41.69
2019-04-10T18:50:08.209Z,42.23
2019-04-10T18:52:37.353Z,42.80
2019-04-10T18:55:07.901Z,43.33
2019-04-10T18:57:36.528Z,43.04
2019-04-10T19:00:10.139Z,42.56
2019-04-10T19:02:43.621Z,42.68
2019-04-10T19:05:25.687Z,43.47
2019-04-10T19:07:54.508Z,43.32
2019-04-10T19:10:23.096Z,43.26
2019-04-10T19:12:51.574Z,43.02
2019-04-10T19:15:20.438Z,43.81
2019-04-10T19:17:49.059Z,44.31
2019-04-10T19:20:17.970Z,43.57
2019-04-10T19:22:46.495Z,44.28
2019-04-10T19:25:15.147Z,44.47
2019-04-10T19:27:44.485Z,44.99
2019-04-10T19:30:33.840Z,44.47
2019-04-10T19:33:02.332Z,45.69
2019-04-10T19:35:31.113Z,45.61
2019-04-10T19:37:59.592Z,44.62
2019-04-10T19:40:28.063Z,44.15
2019-04-10T19:42:57.757Z,45.23
2019-04-10T19:45:27.948Z,44.33
2019-04-10T19:47:57.041Z,44.98
2019-04-10T19:50:25.592Z,45.14
2019-04-10T19:52:55.044Z,45.86
2019-04-10T19:55:23.981Z,45.50
2019-04-10T19:57:53.331Z,44.66
2019-04-10T20:00:24.243Z,45.39
2019-04-10T20:03:26.321Z,45.19
2019-04-10T20:05:55.553Z,45.45
2019-04-10T20:08:24.069Z,45.08
2019-04-10T20:10:52.598Z,44.61
2019-04-10T20:13:21.074Z,46.29
2019-04-10T20:15:49.549Z,45.39
2019-04-10T20:18:18.946Z,45.71
2019-04-10T20:20:47.802Z,43.67
2019-04-10T20:23:16.415Z,44.18
2019-04-10T20:25:44.828Z,44.91
2019-04-10T20:28:14.259Z,45.33
2019-04-10T20:30:42.795Z,45.42
2019-04-10T20:33:57.185Z,45.48
2019-04-10T20:36:25.867Z,44.45
2019-04-10T20:38:54.246Z,44.52
2019-04-10T20:41:22.686Z,44.74
2019-04-10T20:43:53.344Z,44.50
2019-04-10T20:46:22.276Z,44.86
2019-04-10T20:48:50.890Z,46.12
2019-04-10T20:51:19.342Z,44.37
2019-04-10T20:53:48.461Z,44.77
2019-04-10T20:56:18.306Z,44.86
2019-04-10T20:58:47.232Z,45.57
2019-04-10T21:01:16.759Z,46.95
2019-04-10T21:03:45.264Z,44.82
2019-04-10T21:06:13.801Z,45.75
2019-04-10T21:08:42.502Z,44.87
2019-04-10T21:11:11.722Z,44.69
2019-04-10T21:13:40.521Z,45.00
2019-04-10T21:16:09.264Z,45.01
2019-04-10T21:18:37.814Z,45.47
2019-04-10T21:21:06.244Z,45.66
2019-04-10T21:23:35.601Z,45.37
2019-04-10T21:26:04.330Z,44.50
2019-04-10T21:28:32.783Z,44.77
2019-04-10T21:31:05.399Z,45.63
2019-04-10T21:33:43.576Z,45.60
2019-04-10T21:36:12.024Z,44.58
2019-04-10T21:38:40.724Z,45.25
2019-04-10T21:41:10.878Z,45.41
2019-04-10T21:43:39.490Z,46.00
2019-04-10T21:46:08.310Z,45.18
2019-04-10T21:48:37.222Z,45.86
2019-04-10T21:51:06.700Z,45.30
2019-04-10T21:53:35.973Z,45.91
2019-04-10T21:56:06.254Z,45.73
2019-04-10T21:58:37.468Z,45.38
2019-04-10T22:01:09.848Z,45.72
2019-04-10T22:03:38.551Z,46.45
2019-04-10T22:06:09.297Z,45.62
2019-04-10T22:08:39.437Z,45.98
2019-04-10T22:11:08.550Z,46.34
2019-04-10T22:13:38.023Z,45.40
2019-04-10T22:16:09.266Z,45.69
2019-04-10T22:18:37.842Z,46.18
2019-04-10T22:21:08.303Z,45.64
2019-04-10T22:23:36.692Z,46.29
2019-04-10T22:26:05.274Z,45.62
2019-04-10T22:28:33.922Z,46.24
2019-04-10T22:31:02.383Z,46.15
2019-04-10T22:33:43.239Z,46.15
2019-04-10T22:36:12.797Z,45.63
2019-04-10T22:38:41.929Z,45.92
2019-04-10T22:41:22.926Z,45.80
2019-04-10T22:43:40.815Z,46.29
2019-04-10T22:46:09.270Z,46.57
2019-04-10T22:48:37.744Z,46.77
2019-04-10T22:51:08.062Z,46.78
2019-04-10T22:53:37.464Z,45.99
2019-04-10T22:56:06.963Z,46.74
2019-04-10T22:58:35.485Z,46.77
2019-04-10T23:01:04.741Z,47.05
2019-04-10T23:03:33.200Z,46.69
2019-04-10T23:06:01.668Z,46.17
2019-04-10T23:08:30.060Z,46.32
2019-04-10T23:10:59.502Z,47.20
2019-04-10T23:13:28.065Z,46.94
2019-04-10T23:15:57.753Z,46.79
2019-04-10T23:18:27.496Z,46.46
2019-04-10T23:20:57.022Z,47.21
2019-04-10T23:23:25.657Z,47.10
2019-04-10T23:25:54.056Z,46.63
2019-04-10T23:28:23.128Z,46.91
2019-04-10T23:30:51.700Z,47.59
2019-04-10T23:33:20.156Z,47.16
2019-04-10T23:35:49.626Z,47.15
2019-04-10T23:38:18.016Z,47.28
2019-04-10T23:40:47.275Z,47.52
2019-04-10T23:43:18.106Z,47.93
2019-04-10T23:45:46.069Z,47.53
2019-04-10T23:48:16.919Z,48.22
2019-04-10T23:50:46.138Z,47.90
2019-04-10T23:53:14.664Z,47.71
2019-04-10T23:55:43.082Z,48.49
2019-04-10T23:58:11.714Z,47.64
